sensor_id;sensor_type;location;lat;lon;timestamp;P1;durP1;ratioP1;P2;durP2;ratioP2
11504;SDS011;5809;53.262;10.408;2024-03-23T00:54:23;22.27;;;5.70;;
11504;SDS011;5809;53.262;10.408;2024-03-23T00:56:50;27.37;;;5.27;;
11504;SDS011;5809;53.262;10.408;2024-03-23T00:59:15;27.03;;;6.40;;
11504;SDS011;5809;53.262;10.408;2024-03-23T01:01:42;29.20;;;5.67;;
11504;SDS011;5809;53.262;10.408;2024-03-23T01:04:08;26.60;;;5.83;;
11504;SDS011;5809;53.262;10.408;2024-03-23T01:06:34;23.97;;;4.93;;
11504;SDS011;5809;53.262;10.408;2024-03-23T01:09:00;23.83;;;4.57;;
11504;SDS011;5809;53.262;10.408;2024-03-23T01:11:28;29.40;;;6.03;;
11504;SDS011;5809;53.262;10.408;2024-03-23T01:13:54;26.37;;;5.70;;
11504;SDS011;5809;53.262;10.408;2024-03-23T01:16:22;28.07;;;5.67;;
11504;SDS011;5809;53.262;10.408;2024-03-23T01:18:48;25.40;;;5.43;;
11504;SDS011;5809;53.262;10.408;2024-03-23T01:21:14;28.70;;;5.67;;
11504;SDS011;5809;53.262;10.408;2024-03-23T01:23:40;26.63;;;5.93;;
11504;SDS011;5809;53.262;10.408;2024-03-23T01:26:07;26.00;;;5.27;;
11504;SDS011;5809;53.262;10.408;2024-03-23T01:28:35;21.40;;;5.10;;
11504;SDS011;5809;53.262;10.408;2024-03-23T01:31:02;28.40;;;6.00;;
11504;SDS011;5809;53.262;10.408;2024-03-23T01:33:27;32.30;;;5.47;;
11504;SDS011;5809;53.262;10.408;2024-03-23T01:35:54;25.00;;;4.87;;
11504;SDS011;5809;53.262;10.408;2024-03-23T01:38:20;24.43;;;5.60;;
11504;SDS011;5809;53.262;10.408;2024-03-23T01:40:47;23.20;;;4.93;;
11504;SDS011;5809;53.262;10.408;2024-03-23T01:43:13;27.93;;;5.07;;
11504;SDS011;5809;53.262;10.408;2024-03-23T01:45:41;27.10;;;5.77;;
11504;SDS011;5809;53.262;10.408;2024-03-23T01:48:07;27.07;;;5.93;;
11504;SDS011;5809;53.262;10.408;2024-03-23T01:50:36;31.27;;;6.10;;
11504;SDS011;5809;53.262;10.408;2024-03-23T01:53:02;27.63;;;5.47;;
11504;SDS011;5809;53.262;10.408;2024-03-23T01:55:31;35.57;;;5.83;;
11504;SDS011;5809;53.262;10.408;2024-03-23T01:57:57;32.50;;;5.83;;
11504;SDS011;5809;53.262;10.408;2024-03-23T02:00:24;26.20;;;5.47;;
11504;SDS011;5809;53.262;10.408;2024-03-23T02:02:51;38.93;;;5.77;;
11504;SDS011;5809;53.262;10.408;2024-03-23T02:05:18;32.90;;;5.20;;
11504;SDS011;5809;53.262;10.408;2024-03-23T02:07:44;36.37;;;5.93;;
11504;SDS011;5809;53.262;10.408;2024-03-23T02:10:12;27.63;;;5.37;;
11504;SDS011;5809;53.262;10.408;2024-03-23T02:12:38;25.67;;;4.97;;
11504;SDS011;5809;53.262;10.408;2024-03-23T02:15:05;27.87;;;5.40;;
11504;SDS011;5809;53.262;10.408;2024-03-23T02:17:32;25.77;;;5.03;;
11504;SDS011;5809;53.262;10.408;2024-03-23T02:20:02;28.23;;;5.60;;
11504;SDS011;5809;53.262;10.408;2024-03-23T02:22:35;25.60;;;5.40;;
11504;SDS011;5809;53.262;10.408;2024-03-23T02:25:04;28.63;;;5.43;;
11504;SDS011;5809;53.262;10.408;2024-03-23T02:27:31;20.07;;;4.73;;
11504;SDS011;5809;53.262;10.408;2024-03-23T02:29:58;28.30;;;5.50;;
11504;SDS011;5809;53.262;10.408;2024-03-23T02:32:23;31.33;;;5.90;;
11504;SDS011;5809;53.262;10.408;2024-03-23T02:34:50;18.40;;;4.97;;
11504;SDS011;5809;53.262;10.408;2024-03-23T02:37:16;24.27;;;5.87;;
11504;SDS011;5809;53.262;10.408;2024-03-23T02:39:43;22.23;;;5.00;;
11504;SDS011;5809;53.262;10.408;2024-03-23T02:42:10;29.23;;;5.53;;
11504;SDS011;5809;53.262;10.408;2024-03-23T02:44:36;25.03;;;4.97;;
11504;SDS011;5809;53.262;10.408;2024-03-23T02:47:02;26.30;;;5.60;;
11504;SDS011;5809;53.262;10.408;2024-03-23T02:49:29;30.70;;;5.43;;
11504;SDS011;5809;53.262;10.408;2024-03-23T02:51:55;23.83;;;5.43;;
11504;SDS011;5809;53.262;10.408;2024-03-23T02:54:22;28.47;;;5.10;;
11504;SDS011;5809;53.262;10.408;2024-03-23T02:56:48;25.27;;;6.03;;
11504;SDS011;5809;53.262;10.408;2024-03-23T02:59:16;28.07;;;5.43;;
11504;SDS011;5809;53.262;10.408;2024-03-23T03:01:42;27.90;;;5.90;;
11504;SDS011;5809;53.262;10.408;2024-03-23T03:04:09;26.70;;;5.20;;
11504;SDS011;5809;53.262;10.408;2024-03-23T03:06:35;24.03;;;5.93;;
11504;SDS011;5809;53.262;10.408;2024-03-23T03:09:01;23.77;;;5.40;;
11504;SDS011;5809;53.262;10.408;2024-03-23T03:11:27;25.00;;;5.50;;
11504;SDS011;5809;53.262;10.408;2024-03-23T03:13:54;20.40;;;5.20;;
11504;SDS011;5809;53.262;10.408;2024-03-23T03:16:22;27.00;;;6.17;;
11504;SDS011;5809;53.262;10.408;2024-03-23T03:18:49;31.57;;;6.47;;
11504;SDS011;5809;53.262;10.408;2024-03-23T03:21:15;32.97;;;5.67;;
11504;SDS011;5809;53.262;10.408;2024-03-23T03:23:42;33.70;;;6.33;;
11504;SDS011;5809;53.262;10.408;2024-03-23T03:26:09;31.37;;;6.20;;
11504;SDS011;5809;53.262;10.408;2024-03-23T03:28:36;21.53;;;5.63;;
11504;SDS011;5809;53.262;10.408;2024-03-23T03:31:02;29.60;;;6.17;;
11504;SDS011;5809;53.262;10.408;2024-03-23T03:33:30;31.00;;;6.60;;
11504;SDS011;5809;53.262;10.408;2024-03-23T03:35:56;30.00;;;6.43;;
11504;SDS011;5809;53.262;10.408;2024-03-23T03:38:24;23.33;;;6.30;;
11504;SDS011;5809;53.262;10.408;2024-03-23T03:40:49;30.17;;;5.67;;
11504;SDS011;5809;53.262;10.408;2024-03-23T03:43:17;29.13;;;6.17;;
11504;SDS011;5809;53.262;10.408;2024-03-23T03:48:25;28.60;;;6.23;;
11504;SDS011;5809;53.262;10.408;2024-03-23T03:50:53;24.30;;;5.53;;
11504;SDS011;5809;53.262;10.408;2024-03-23T03:53:19;30.27;;;5.93;;
11504;SDS011;5809;53.262;10.408;2024-03-23T03:55:46;35.60;;;6.43;;
11504;SDS011;5809;53.262;10.408;2024-03-23T03:58:12;29.00;;;5.30;;
11504;SDS011;5809;53.262;10.408;2024-03-23T04:00:39;27.77;;;5.50;;
11504;SDS011;5809;53.262;10.408;2024-03-23T04:03:06;28.40;;;5.43;;
11504;SDS011;5809;53.262;10.408;2024-03-23T04:05:32;29.73;;;5.80;;
11504;SDS011;5809;53.262;10.408;2024-03-23T04:08:00;29.23;;;5.97;;
11504;SDS011;5809;53.262;10.408;2024-03-23T04:10:26;25.73;;;6.03;;
11504;SDS011;5809;53.262;10.408;2024-03-23T04:12:53;29.13;;;5.63;;
11504;SDS011;5809;53.262;10.408;2024-03-23T04:15:19;29.67;;;6.23;;
11504;SDS011;5809;53.262;10.408;2024-03-23T04:17:46;30.77;;;6.40;;
11504;SDS011;5809;53.262;10.408;2024-03-23T04:20:12;31.93;;;6.33;;
11504;SDS011;5809;53.262;10.408;2024-03-23T04:22:41;26.00;;;5.53;;
11504;SDS011;5809;53.262;10.408;2024-03-23T04:25:09;26.57;;;5.63;;
11504;SDS011;5809;53.262;10.408;2024-03-23T04:27:35;30.17;;;5.90;;
11504;SDS011;5809;53.262;10.408;2024-03-23T04:30:02;24.13;;;5.80;;
11504;SDS011;5809;53.262;10.408;2024-03-23T04:32:34;27.13;;;5.63;;
11504;SDS011;5809;53.262;10.408;2024-03-23T04:35:00;23.60;;;6.03;;
11504;SDS011;5809;53.262;10.408;2024-03-23T04:37:30;32.03;;;6.33;;
11504;SDS011;5809;53.262;10.408;2024-03-23T04:39:57;23.03;;;5.70;;
11504;SDS011;5809;53.262;10.408;2024-03-23T04:42:26;29.93;;;6.23;;
11504;SDS011;5809;53.262;10.408;2024-03-23T04:44:52;27.73;;;5.97;;
11504;SDS011;5809;53.262;10.408;2024-03-23T04:47:18;29.80;;;6.60;;
11504;SDS011;5809;53.262;10.408;2024-03-23T04:49:45;26.40;;;5.90;;
11504;SDS011;5809;53.262;10.408;2024-03-23T04:52:12;25.33;;;5.00;;
11504;SDS011;5809;53.262;10.408;2024-03-23T04:54:40;24.57;;;5.87;;
11504;SDS011;5809;53.262;10.408;2024-03-23T04:57:07;22.27;;;6.47;;
11504;SDS011;5809;53.262;10.408;2024-03-23T04:59:34;25.50;;;5.73;;
11504;SDS011;5809;53.262;10.408;2024-03-23T05:02:01;23.17;;;5.77;;
11504;SDS011;5809;53.262;10.408;2024-03-23T05:04:28;28.50;;;6.17;;
11504;SDS011;5809;53.262;10.408;2024-03-23T05:06:54;31.40;;;6.33;;
11504;SDS011;5809;53.262;10.408;2024-03-23T05:09:21;26.80;;;6.13;;
11504;SDS011;5809;53.262;10.408;2024-03-23T05:11:47;27.67;;;6.13;;
11504;SDS011;5809;53.262;10.408;2024-03-23T05:14:14;32.20;;;5.90;;
11504;SDS011;5809;53.262;10.408;2024-03-23T05:16:41;31.50;;;6.13;;
11504;SDS011;5809;53.262;10.408;2024-03-23T05:19:08;23.70;;;5.30;;
11504;SDS011;5809;53.262;10.408;2024-03-23T05:21:34;29.37;;;6.37;;
11504;SDS011;5809;53.262;10.408;2024-03-23T05:24:01;23.50;;;5.97;;
11504;SDS011;5809;53.262;10.408;2024-03-23T05:26:28;26.17;;;5.23;;
11504;SDS011;5809;53.262;10.408;2024-03-23T05:28:55;29.30;;;6.90;;
11504;SDS011;5809;53.262;10.408;2024-03-23T05:31:25;33.60;;;6.40;;
11504;SDS011;5809;53.262;10.408;2024-03-23T05:33:53;24.73;;;4.80;;
11504;SDS011;5809;53.262;10.408;2024-03-23T05:36:19;25.73;;;5.27;;
11504;SDS011;5809;53.262;10.408;2024-03-23T05:38:46;29.80;;;6.00;;
11504;SDS011;5809;53.262;10.408;2024-03-23T05:41:13;25.20;;;5.57;;
11504;SDS011;5809;53.262;10.408;2024-03-23T05:43:40;28.73;;;5.73;;
11504;SDS011;5809;53.262;10.408;2024-03-23T05:46:05;27.93;;;5.77;;
11504;SDS011;5809;53.262;10.408;2024-03-23T05:48:32;23.83;;;5.60;;
11504;SDS011;5809;53.262;10.408;2024-03-23T05:50:59;20.70;;;5.40;;
11504;SDS011;5809;53.262;10.408;2024-03-23T05:53:27;30.03;;;6.80;;
11504;SDS011;5809;53.262;10.408;2024-03-23T05:56:00;25.47;;;5.87;;
11504;SDS011;5809;53.262;10.408;2024-03-23T05:58:28;27.47;;;6.00;;
11504;SDS011;5809;53.262;10.408;2024-03-23T06:00:56;27.43;;;5.97;;
11504;SDS011;5809;53.262;10.408;2024-03-23T06:03:24;26.70;;;5.80;;
11504;SDS011;5809;53.262;10.408;2024-03-23T06:05:50;25.40;;;5.70;;
11504;SDS011;5809;53.262;10.408;2024-03-23T06:08:19;23.50;;;5.67;;
11504;SDS011;5809;53.262;10.408;2024-03-23T06:10:45;25.00;;;5.67;;
11504;SDS011;5809;53.262;10.408;2024-03-23T06:13:12;29.63;;;6.43;;
11504;SDS011;5809;53.262;10.408;2024-03-23T06:15:37;26.00;;;5.67;;
11504;SDS011;5809;53.262;10.408;2024-03-23T06:18:04;30.63;;;5.83;;
11504;SDS011;5809;53.262;10.408;2024-03-23T06:20:32;19.53;;;4.83;;
11504;SDS011;5809;53.262;10.408;2024-03-23T06:22:59;27.13;;;5.57;;
11504;SDS011;5809;53.262;10.408;2024-03-23T06:25:26;20.97;;;5.50;;
11504;SDS011;5809;53.262;10.408;2024-03-23T06:27:53;28.77;;;5.67;;
11504;SDS011;5809;53.262;10.408;2024-03-23T06:30:19;24.33;;;5.07;;
11504;SDS011;5809;53.262;10.408;2024-03-23T06:32:46;23.57;;;4.80;;
11504;SDS011;5809;53.262;10.408;2024-03-23T06:35:13;18.03;;;5.10;;
11504;SDS011;5809;53.262;10.408;2024-03-23T06:37:40;18.53;;;5.10;;
11504;SDS011;5809;53.262;10.408;2024-03-23T06:40:06;20.20;;;5.17;;
11504;SDS011;5809;53.262;10.408;2024-03-23T06:42:36;21.50;;;4.47;;
11504;SDS011;5809;53.262;10.408;2024-03-23T06:45:02;23.33;;;5.13;;
11504;SDS011;5809;53.262;10.408;2024-03-23T06:47:30;22.93;;;5.07;;
11504;SDS011;5809;53.262;10.408;2024-03-23T06:49:56;15.80;;;4.33;;
11504;SDS011;5809;53.262;10.408;2024-03-23T06:52:24;23.53;;;5.23;;
11504;SDS011;5809;53.262;10.408;2024-03-23T06:54:50;20.03;;;4.80;;
11504;SDS011;5809;53.262;10.408;2024-03-23T06:57:17;20.47;;;5.03;;
11504;SDS011;5809;53.262;10.408;2024-03-23T06:59:44;26.77;;;5.47;;
11504;SDS011;5809;53.262;10.408;2024-03-23T07:02:11;23.07;;;4.97;;
11504;SDS011;5809;53.262;10.408;2024-03-23T07:04:36;19.53;;;4.43;;
11504;SDS011;5809;53.262;10.408;2024-03-23T07:07:04;18.10;;;5.27;;
11504;SDS011;5809;53.262;10.408;2024-03-23T07:09:30;19.33;;;5.03;;
11504;SDS011;5809;53.262;10.408;2024-03-23T07:11:57;17.90;;;4.83;;
11504;SDS011;5809;53.262;10.408;2024-03-23T07:14:24;21.35;;;4.90;;
11504;SDS011;5809;53.262;10.408;2024-03-23T07:16:52;18.75;;;4.93;;
11504;SDS011;5809;53.262;10.408;2024-03-23T07:19:18;15.98;;;4.75;;
11504;SDS011;5809;53.262;10.408;2024-03-23T07:21:45;17.08;;;4.97;;
11504;SDS011;5809;53.262;10.408;2024-03-23T07:24:11;24.67;;;4.82;;
11504;SDS011;5809;53.262;10.408;2024-03-23T07:26:38;19.52;;;4.45;;
11504;SDS011;5809;53.262;10.408;2024-03-23T07:29:04;15.93;;;5.20;;
11504;SDS011;5809;53.262;10.408;2024-03-23T07:31:31;15.77;;;5.30;;
11504;SDS011;5809;53.262;10.408;2024-03-23T07:33:58;18.85;;;4.75;;
11504;SDS011;5809;53.262;10.408;2024-03-23T07:36:25;17.00;;;4.45;;
11504;SDS011;5809;53.262;10.408;2024-03-23T07:38:51;20.30;;;4.53;;
11504;SDS011;5809;53.262;10.408;2024-03-23T07:41:18;17.67;;;4.20;;
11504;SDS011;5809;53.262;10.408;2024-03-23T07:43:45;18.10;;;4.78;;
11504;SDS011;5809;53.262;10.408;2024-03-23T07:46:13;18.30;;;4.45;;
11504;SDS011;5809;53.262;10.408;2024-03-23T07:48:40;16.38;;;4.10;;
11504;SDS011;5809;53.262;10.408;2024-03-23T07:51:09;13.57;;;4.55;;
11504;SDS011;5809;53.262;10.408;2024-03-23T07:53:36;19.20;;;4.50;;
11504;SDS011;5809;53.262;10.408;2024-03-23T07:56:04;16.45;;;5.20;;
11504;SDS011;5809;53.262;10.408;2024-03-23T07:58:32;17.58;;;4.50;;
11504;SDS011;5809;53.262;10.408;2024-03-23T08:01:03;13.60;;;4.45;;
11504;SDS011;5809;53.262;10.408;2024-03-23T08:03:29;18.00;;;4.88;;
11504;SDS011;5809;53.262;10.408;2024-03-23T08:05:56;17.40;;;4.55;;
11504;SDS011;5809;53.262;10.408;2024-03-23T08:08:23;17.08;;;4.53;;
11504;SDS011;5809;53.262;10.408;2024-03-23T08:10:52;19.00;;;4.53;;
11504;SDS011;5809;53.262;10.408;2024-03-23T08:13:19;21.33;;;4.15;;
11504;SDS011;5809;53.262;10.408;2024-03-23T08:15:48;15.18;;;4.05;;
11504;SDS011;5809;53.262;10.408;2024-03-23T08:18:14;18.10;;;4.03;;
11504;SDS011;5809;53.262;10.408;2024-03-23T08:20:41;13.32;;;3.50;;
11504;SDS011;5809;53.262;10.408;2024-03-23T08:23:08;11.35;;;3.47;;
11504;SDS011;5809;53.262;10.408;2024-03-23T08:25:35;15.05;;;3.88;;
11504;SDS011;5809;53.262;10.408;2024-03-23T08:28:02;16.20;;;4.28;;
11504;SDS011;5809;53.262;10.408;2024-03-23T08:30:28;13.30;;;3.40;;
11504;SDS011;5809;53.262;10.408;2024-03-23T08:32:55;14.45;;;3.67;;
11504;SDS011;5809;53.262;10.408;2024-03-23T08:35:21;13.82;;;4.03;;
11504;SDS011;5809;53.262;10.408;2024-03-23T08:37:48;15.15;;;3.55;;
11504;SDS011;5809;53.262;10.408;2024-03-23T08:40:14;13.73;;;3.90;;
11504;SDS011;5809;53.262;10.408;2024-03-23T08:42:43;11.23;;;3.17;;
11504;SDS011;5809;53.262;10.408;2024-03-23T08:45:09;13.73;;;3.67;;
11504;SDS011;5809;53.262;10.408;2024-03-23T08:47:36;11.27;;;3.28;;
11504;SDS011;5809;53.262;10.408;2024-03-23T08:50:01;13.18;;;3.58;;
11504;SDS011;5809;53.262;10.408;2024-03-23T08:52:29;12.48;;;4.00;;
11504;SDS011;5809;53.262;10.408;2024-03-23T08:54:55;10.85;;;3.33;;
11504;SDS011;5809;53.262;10.408;2024-03-23T08:57:22;10.68;;;3.33;;
11504;SDS011;5809;53.262;10.408;2024-03-23T08:59:49;11.52;;;3.47;;
11504;SDS011;5809;53.262;10.408;2024-03-23T09:02:16;9.70;;;3.13;;
11504;SDS011;5809;53.262;10.408;2024-03-23T09:04:42;11.23;;;3.13;;
11504;SDS011;5809;53.262;10.408;2024-03-23T09:07:10;10.02;;;3.40;;
11504;SDS011;5809;53.262;10.408;2024-03-23T09:09:37;11.35;;;3.28;;
11504;SDS011;5809;53.262;10.408;2024-03-23T09:12:05;12.30;;;3.42;;
11504;SDS011;5809;53.262;10.408;2024-03-23T09:14:31;8.63;;;3.20;;
11504;SDS011;5809;53.262;10.408;2024-03-23T09:16:59;10.15;;;3.03;;
11504;SDS011;5809;53.262;10.408;2024-03-23T09:19:26;10.57;;;2.95;;
11504;SDS011;5809;53.262;10.408;2024-03-23T09:21:54;10.75;;;3.70;;
11504;SDS011;5809;53.262;10.408;2024-03-23T09:24:20;13.18;;;3.22;;
11504;SDS011;5809;53.262;10.408;2024-03-23T09:26:48;10.30;;;3.13;;
11504;SDS011;5809;53.262;10.408;2024-03-23T09:29:14;11.88;;;3.35;;
11504;SDS011;5809;53.262;10.408;2024-03-23T09:31:41;10.50;;;2.85;;
11504;SDS011;5809;53.262;10.408;2024-03-23T09:34:08;11.23;;;2.60;;
11504;SDS011;5809;53.262;10.408;2024-03-23T09:36:35;15.98;;;3.90;;
11504;SDS011;5809;53.262;10.408;2024-03-23T09:39:01;9.50;;;2.65;;
11504;SDS011;5809;53.262;10.408;2024-03-23T09:41:30;8.93;;;2.55;;
11504;SDS011;5809;53.262;10.408;2024-03-23T09:43:56;14.15;;;2.80;;
11504;SDS011;5809;53.262;10.408;2024-03-23T09:46:23;9.32;;;2.65;;
11504;SDS011;5809;53.262;10.408;2024-03-23T09:48:49;10.65;;;2.70;;
11504;SDS011;5809;53.262;10.408;2024-03-23T09:51:17;12.80;;;3.00;;
11504;SDS011;5809;53.262;10.408;2024-03-23T09:53:43;14.38;;;2.90;;
11504;SDS011;5809;53.262;10.408;2024-03-23T09:56:10;6.88;;;2.30;;
11504;SDS011;5809;53.262;10.408;2024-03-23T09:58:36;11.45;;;2.25;;
11504;SDS011;5809;53.262;10.408;2024-03-23T10:01:03;8.10;;;1.80;;
11504;SDS011;5809;53.262;10.408;2024-03-23T10:03:29;10.00;;;2.63;;
11504;SDS011;5809;53.262;10.408;2024-03-23T10:06:00;10.63;;;2.63;;
11504;SDS011;5809;53.262;10.408;2024-03-23T10:08:28;10.93;;;2.90;;
11504;SDS011;5809;53.262;10.408;2024-03-23T10:10:55;6.20;;;2.35;;
11504;SDS011;5809;53.262;10.408;2024-03-23T10:13:25;8.93;;;2.35;;
11504;SDS011;5809;53.262;10.408;2024-03-23T10:15:55;7.78;;;1.70;;
11504;SDS011;5809;53.262;10.408;2024-03-23T10:18:22;7.72;;;2.65;;
11504;SDS011;5809;53.262;10.408;2024-03-23T10:21:06;6.00;;;1.95;;
11504;SDS011;5809;53.262;10.408;2024-03-23T10:23:34;9.73;;;2.40;;
11504;SDS011;5809;53.262;10.408;2024-03-23T10:26:12;6.25;;;1.90;;
11504;SDS011;5809;53.262;10.408;2024-03-23T10:28:55;6.97;;;2.13;;
11504;SDS011;5809;53.262;10.408;2024-03-23T10:31:26;5.20;;;1.98;;
11504;SDS011;5809;53.262;10.408;2024-03-23T10:33:52;6.82;;;2.03;;
11504;SDS011;5809;53.262;10.408;2024-03-23T10:36:20;7.05;;;1.90;;
11504;SDS011;5809;53.262;10.408;2024-03-23T10:38:50;8.45;;;2.45;;
11504;SDS011;5809;53.262;10.408;2024-03-23T10:41:20;9.57;;;2.38;;
11504;SDS011;5809;53.262;10.408;2024-03-23T10:43:48;6.55;;;1.80;;
11504;SDS011;5809;53.262;10.408;2024-03-23T10:46:16;6.45;;;2.22;;
11504;SDS011;5809;53.262;10.408;2024-03-23T10:48:42;6.78;;;2.10;;
11504;SDS011;5809;53.262;10.408;2024-03-23T10:51:10;10.57;;;2.05;;
11504;SDS011;5809;53.262;10.408;2024-03-23T10:53:37;4.50;;;1.88;;
11504;SDS011;5809;53.262;10.408;2024-03-23T10:56:05;9.05;;;2.10;;
11504;SDS011;5809;53.262;10.408;2024-03-23T10:58:33;10.27;;;2.80;;
11504;SDS011;5809;53.262;10.408;2024-03-23T11:01:03;10.70;;;2.92;;
11504;SDS011;5809;53.262;10.408;2024-03-23T11:03:30;9.98;;;2.55;;
11504;SDS011;5809;53.262;10.408;2024-03-23T11:05:57;7.40;;;2.03;;
11504;SDS011;5809;53.262;10.408;2024-03-23T11:08:30;8.77;;;2.38;;
11504;SDS011;5809;53.262;10.408;2024-03-23T11:13:44;8.48;;;2.10;;
11504;SDS011;5809;53.262;10.408;2024-03-23T11:16:14;6.40;;;1.80;;
11504;SDS011;5809;53.262;10.408;2024-03-23T11:18:41;5.35;;;1.73;;
11504;SDS011;5809;53.262;10.408;2024-03-23T11:21:08;4.90;;;1.83;;
11504;SDS011;5809;53.262;10.408;2024-03-23T11:23:35;8.05;;;2.28;;
11504;SDS011;5809;53.262;10.408;2024-03-23T11:26:01;6.68;;;2.08;;
11504;SDS011;5809;53.262;10.408;2024-03-23T11:28:30;6.03;;;2.00;;
11504;SDS011;5809;53.262;10.408;2024-03-23T11:30:57;8.70;;;1.95;;
11504;SDS011;5809;53.262;10.408;2024-03-23T11:33:23;6.82;;;1.90;;
11504;SDS011;5809;53.262;10.408;2024-03-23T11:35:50;5.07;;;2.00;;
11504;SDS011;5809;53.262;10.408;2024-03-23T11:38:17;5.68;;;1.88;;
11504;SDS011;5809;53.262;10.408;2024-03-23T11:40:44;13.65;;;2.95;;
11504;SDS011;5809;53.262;10.408;2024-03-23T11:43:12;11.32;;;2.95;;
11504;SDS011;5809;53.262;10.408;2024-03-23T11:45:42;10.27;;;2.70;;
11504;SDS011;5809;53.262;10.408;2024-03-23T11:48:09;5.68;;;1.90;;
11504;SDS011;5809;53.262;10.408;2024-03-23T11:50:38;4.00;;;1.70;;
11504;SDS011;5809;53.262;10.408;2024-03-23T11:53:13;5.45;;;1.80;;
11504;SDS011;5809;53.262;10.408;2024-03-23T11:55:47;6.45;;;1.98;;
11504;SDS011;5809;53.262;10.408;2024-03-23T11:58:14;7.05;;;2.63;;
11504;SDS011;5809;53.262;10.408;2024-03-23T12:00:49;10.25;;;2.75;;
11504;SDS011;5809;53.262;10.408;2024-03-23T12:03:16;9.85;;;2.53;;
11504;SDS011;5809;53.262;10.408;2024-03-23T12:05:47;6.28;;;2.10;;
11504;SDS011;5809;53.262;10.408;2024-03-23T12:08:21;6.00;;;1.65;;
11504;SDS011;5809;53.262;10.408;2024-03-23T12:10:49;7.25;;;1.58;;
11504;SDS011;5809;53.262;10.408;2024-03-23T12:13:17;6.07;;;1.80;;
11504;SDS011;5809;53.262;10.408;2024-03-23T12:15:46;3.67;;;1.77;;
11504;SDS011;5809;53.262;10.408;2024-03-23T12:18:14;4.30;;;1.58;;
11504;SDS011;5809;53.262;10.408;2024-03-23T12:20:41;5.03;;;1.55;;
11504;SDS011;5809;53.262;10.408;2024-03-23T12:23:07;4.05;;;1.98;;
11504;SDS011;5809;53.262;10.408;2024-03-23T12:25:36;4.45;;;1.65;;
11504;SDS011;5809;53.262;10.408;2024-03-23T12:28:03;5.55;;;1.70;;
11504;SDS011;5809;53.262;10.408;2024-03-23T12:30:31;7.60;;;2.20;;
11504;SDS011;5809;53.262;10.408;2024-03-23T12:32:58;5.47;;;1.90;;
11504;SDS011;5809;53.262;10.408;2024-03-23T12:35:25;4.38;;;1.63;;
11504;SDS011;5809;53.262;10.408;2024-03-23T12:37:51;5.85;;;2.00;;
11504;SDS011;5809;53.262;10.408;2024-03-23T12:40:18;5.22;;;1.95;;
11504;SDS011;5809;53.262;10.408;2024-03-23T12:42:44;4.57;;;1.95;;
11504;SDS011;5809;53.262;10.408;2024-03-23T12:45:11;7.88;;;2.03;;
11504;SDS011;5809;53.262;10.408;2024-03-23T12:47:37;6.88;;;2.28;;
11504;SDS011;5809;53.262;10.408;2024-03-23T12:50:06;6.47;;;2.05;;
11504;SDS011;5809;53.262;10.408;2024-03-23T12:52:32;7.88;;;2.13;;
11504;SDS011;5809;53.262;10.408;2024-03-23T12:54:59;6.40;;;2.47;;
11504;SDS011;5809;53.262;10.408;2024-03-23T12:57:24;6.50;;;2.10;;
11504;SDS011;5809;53.262;10.408;2024-03-23T12:59:51;6.60;;;2.53;;
11504;SDS011;5809;53.262;10.408;2024-03-23T13:02:18;5.45;;;2.10;;
11504;SDS011;5809;53.262;10.408;2024-03-23T13:04:46;8.55;;;2.30;;
11504;SDS011;5809;53.262;10.408;2024-03-23T13:07:15;7.72;;;2.30;;
11504;SDS011;5809;53.262;10.408;2024-03-23T13:09:42;6.80;;;2.15;;
11504;SDS011;5809;53.262;10.408;2024-03-23T13:12:08;6.30;;;2.30;;
11504;SDS011;5809;53.262;10.408;2024-03-23T13:14:37;11.50;;;2.47;;
11504;SDS011;5809;53.262;10.408;2024-03-23T13:17:03;6.00;;;2.08;;
11504;SDS011;5809;53.262;10.408;2024-03-23T13:19:30;6.57;;;2.08;;
11504;SDS011;5809;53.262;10.408;2024-03-23T13:21:56;6.35;;;1.73;;
11504;SDS011;5809;53.262;10.408;2024-03-23T13:24:24;5.00;;;1.40;;
11504;SDS011;5809;53.262;10.408;2024-03-23T13:26:51;4.82;;;1.63;;
11504;SDS011;5809;53.262;10.408;2024-03-23T13:29:18;4.40;;;1.50;;
11504;SDS011;5809;53.262;10.408;2024-03-23T13:31:44;3.43;;;1.10;;
11504;SDS011;5809;53.262;10.408;2024-03-23T13:34:11;3.37;;;1.10;;
11504;SDS011;5809;53.262;10.408;2024-03-23T13:36:38;5.70;;;1.50;;
11504;SDS011;5809;53.262;10.408;2024-03-23T13:39:05;2.83;;;1.37;;
11504;SDS011;5809;53.262;10.408;2024-03-23T13:41:37;5.50;;;1.73;;
11504;SDS011;5809;53.262;10.408;2024-03-23T13:44:05;2.80;;;1.27;;
11504;SDS011;5809;53.262;10.408;2024-03-23T13:46:30;3.03;;;1.20;;
11504;SDS011;5809;53.262;10.408;2024-03-23T13:48:57;6.57;;;1.70;;
11504;SDS011;5809;53.262;10.408;2024-03-23T13:51:24;5.80;;;2.07;;
11504;SDS011;5809;53.262;10.408;2024-03-23T13:53:52;4.93;;;2.00;;
11504;SDS011;5809;53.262;10.408;2024-03-23T13:56:18;5.27;;;1.90;;
11504;SDS011;5809;53.262;10.408;2024-03-23T13:58:46;3.77;;;1.53;;
11504;SDS011;5809;53.262;10.408;2024-03-23T14:01:12;3.73;;;1.50;;
11504;SDS011;5809;53.262;10.408;2024-03-23T14:03:40;3.53;;;1.47;;
11504;SDS011;5809;53.262;10.408;2024-03-23T14:06:06;3.70;;;1.27;;
11504;SDS011;5809;53.262;10.408;2024-03-23T14:08:36;4.20;;;1.10;;
11504;SDS011;5809;53.262;10.408;2024-03-23T14:11:04;3.27;;;1.10;;
11504;SDS011;5809;53.262;10.408;2024-03-23T14:13:31;3.53;;;1.20;;
11504;SDS011;5809;53.262;10.408;2024-03-23T14:15:59;2.77;;;1.00;;
11504;SDS011;5809;53.262;10.408;2024-03-23T14:18:25;3.17;;;1.30;;
11504;SDS011;5809;53.262;10.408;2024-03-23T14:20:51;4.50;;;1.27;;
11504;SDS011;5809;53.262;10.408;2024-03-23T14:23:23;2.47;;;1.03;;
11504;SDS011;5809;53.262;10.408;2024-03-23T14:25:49;3.13;;;1.43;;
11504;SDS011;5809;53.262;10.408;2024-03-23T14:28:18;3.40;;;1.63;;
11504;SDS011;5809;53.262;10.408;2024-03-23T14:30:44;4.67;;;1.50;;
11504;SDS011;5809;53.262;10.408;2024-03-23T14:33:12;5.20;;;1.40;;
11504;SDS011;5809;53.262;10.408;2024-03-23T14:35:37;2.67;;;1.30;;
11504;SDS011;5809;53.262;10.408;2024-03-23T14:38:05;5.83;;;1.40;;
11504;SDS011;5809;53.262;10.408;2024-03-23T14:40:30;4.47;;;1.40;;
11504;SDS011;5809;53.262;10.408;2024-03-23T14:42:57;3.20;;;1.30;;
11504;SDS011;5809;53.262;10.408;2024-03-23T14:45:23;2.47;;;1.10;;
11504;SDS011;5809;53.262;10.408;2024-03-23T14:47:50;3.17;;;1.37;;
11504;SDS011;5809;53.262;10.408;2024-03-23T14:50:18;2.67;;;1.20;;
11504;SDS011;5809;53.262;10.408;2024-03-23T14:52:46;2.77;;;1.60;;
11504;SDS011;5809;53.262;10.408;2024-03-23T14:55:12;3.27;;;1.27;;
11504;SDS011;5809;53.262;10.408;2024-03-23T14:57:40;4.67;;;1.40;;
11504;SDS011;5809;53.262;10.408;2024-03-23T15:00:07;1.93;;;1.20;;
11504;SDS011;5809;53.262;10.408;2024-03-23T15:02:35;1.80;;;1.10;;
11504;SDS011;5809;53.262;10.408;2024-03-23T15:05:01;2.43;;;1.03;;
11504;SDS011;5809;53.262;10.408;2024-03-23T15:07:30;1.73;;;1.03;;
11504;SDS011;5809;53.262;10.408;2024-03-23T15:09:56;2.87;;;1.00;;
11504;SDS011;5809;53.262;10.408;2024-03-23T15:12:23;3.27;;;1.40;;
11504;SDS011;5809;53.262;10.408;2024-03-23T15:14:50;3.33;;;1.08;;
11504;SDS011;5809;53.262;10.408;2024-03-23T15:17:17;4.40;;;1.00;;
11504;SDS011;5809;53.262;10.408;2024-03-23T15:19:43;3.83;;;1.00;;
11504;SDS011;5809;53.262;10.408;2024-03-23T15:22:10;3.47;;;1.13;;
11504;SDS011;5809;53.262;10.408;2024-03-23T15:24:37;2.08;;;1.02;;
11504;SDS011;5809;53.262;10.408;2024-03-23T15:27:04;4.20;;;1.10;;
11504;SDS011;5809;53.262;10.408;2024-03-23T15:29:32;2.08;;;0.85;;
11504;SDS011;5809;53.262;10.408;2024-03-23T15:31:59;2.08;;;1.13;;
11504;SDS011;5809;53.262;10.408;2024-03-23T15:34:25;4.50;;;1.33;;
11504;SDS011;5809;53.262;10.408;2024-03-23T15:36:52;2.10;;;1.02;;